sensor_id;sensor_type;location;lat;lon;timestamp;pressure;altitude;pressure_sealevel;temperature;humidity
30421;BME280;17218;54.070;10.012;2023-04-27T00:02:08;101627.22;;;3.59;100.00
30421;BME280;17218;54.070;10.012;2023-04-27T00:04:35;101609.78;;;3.49;100.00
30421;BME280;17218;54.070;10.012;2023-04-27T00:07:02;101623.28;;;3.44;100.00
30421;BME280;17218;54.070;10.012;2023-04-27T00:09:28;101620.91;;;3.26;100.00
30421;BME280;17218;54.070;10.012;2023-04-27T00:11:56;101622.34;;;3.18;100.00
30421;BME280;17218;54.070;10.012;2023-04-27T00:14:23;101625.75;;;3.18;100.00
30421;BME280;17218;54.070;10.012;2023-04-27T00:16:52;101627.28;;;3.13;100.00
30421;BME280;17218;54.070;10.012;2023-04-27T00:19:19;101627.50;;;3.19;100.00
30421;BME280;17218;54.070;10.012;2023-04-27T00:21:46;101614.34;;;3.10;100.00
30421;BME280;17218;54.070;10.012;2023-04-27T00:24:13;101629.88;;;3.15;100.00
30421;BME280;17218;54.070;10.012;2023-04-27T00:26:39;101621.41;;;3.16;100.00
30421;BME280;17218;54.070;10.012;2023-04-27T00:29:08;101620.63;;;3.18;100.00
30421;BME280;17218;54.070;10.012;2023-04-27T00:31:34;101616.44;;;3.20;100.00
30421;BME280;17218;54.070;10.012;2023-04-27T00:34:01;101613.81;;;3.19;100.00
30421;BME280;17218;54.070;10.012;2023-04-27T00:36:27;101611.97;;;3.15;100.00
30421;BME280;17218;54.070;10.012;2023-04-27T00:38:53;101615.56;;;3.20;100.00
30421;BME280;17218;54.070;10.012;2023-04-27T00:41:20;101617.22;;;3.18;100.00
30421;BME280;17218;54.070;10.012;2023-04-27T00:43:47;101616.38;;;3.19;100.00
30421;BME280;17218;54.070;10.012;2023-04-27T00:46:15;101622.03;;;3.10;100.00
30421;BME280;17218;54.070;10.012;2023-04-27T00:48:43;101631.81;;;2.97;100.00
30421;BME280;17218;54.070;10.012;2023-04-27T00:51:11;101620.41;;;2.89;100.00
30421;BME280;17218;54.070;10.012;2023-04-27T00:53:38;101620.03;;;2.80;100.00
30421;BME280;17218;54.070;10.012;2023-04-27T00:56:05;101621.50;;;2.73;100.00
30421;BME280;17218;54.070;10.012;2023-04-27T00:58:32;101629.34;;;2.78;100.00
30421;BME280;17218;54.070;10.012;2023-04-27T01:00:59;101639.50;;;2.76;100.00
30421;BME280;17218;54.070;10.012;2023-04-27T01:03:26;101629.97;;;2.72;100.00
30421;BME280;17218;54.070;10.012;2023-04-27T01:05:53;101637.53;;;2.69;100.00
30421;BME280;17218;54.070;10.012;2023-04-27T01:08:20;101643.88;;;2.57;100.00
30421;BME280;17218;54.070;10.012;2023-04-27T01:10:47;101638.66;;;2.54;100.00
30421;BME280;17218;54.070;10.012;2023-04-27T01:13:13;101642.78;;;2.50;100.00
30421;BME280;17218;54.070;10.012;2023-04-27T01:15:40;101642.91;;;2.54;100.00
30421;BME280;17218;54.070;10.012;2023-04-27T01:18:06;101647.63;;;2.44;100.00
30421;BME280;17218;54.070;10.012;2023-04-27T01:20:35;101639.56;;;2.35;100.00
30421;BME280;17218;54.070;10.012;2023-04-27T01:23:03;101640.28;;;2.31;100.00
30421;BME280;17218;54.070;10.012;2023-04-27T01:25:30;101638.66;;;2.33;100.00
30421;BME280;17218;54.070;10.012;2023-04-27T01:27:57;101650.50;;;2.31;100.00
30421;BME280;17218;54.070;10.012;2023-04-27T01:30:23;101645.50;;;2.34;100.00
30421;BME280;17218;54.070;10.012;2023-04-27T01:32:52;101640.00;;;2.24;100.00
30421;BME280;17218;54.070;10.012;2023-04-27T01:35:19;101642.41;;;2.20;100.00
30421;BME280;17218;54.070;10.012;2023-04-27T01:37:45;101654.34;;;2.21;100.00
30421;BME280;17218;54.070;10.012;2023-04-27T01:40:12;101647.25;;;2.13;100.00
30421;BME280;17218;54.070;10.012;2023-04-27T01:42:41;101638.56;;;2.10;100.00
30421;BME280;17218;54.070;10.012;2023-04-27T01:45:08;101650.28;;;2.05;100.00
30421;BME280;17218;54.070;10.012;2023-04-27T01:47:35;101643.34;;;2.02;100.00
30421;BME280;17218;54.070;10.012;2023-04-27T01:50:02;101649.06;;;1.96;100.00
30421;BME280;17218;54.070;10.012;2023-04-27T01:52:28;101646.59;;;1.98;100.00
30421;BME280;17218;54.070;10.012;2023-04-27T01:54:55;101661.00;;;1.96;100.00
30421;BME280;17218;54.070;10.012;2023-04-27T01:57:21;101661.44;;;1.87;100.00
30421;BME280;17218;54.070;10.012;2023-04-27T01:59:49;101648.75;;;1.88;100.00
30421;BME280;17218;54.070;10.012;2023-04-27T02:02:16;101662.59;;;1.94;100.00
30421;BME280;17218;54.070;10.012;2023-04-27T02:04:42;101663.50;;;1.94;100.00
30421;BME280;17218;54.070;10.012;2023-04-27T02:07:09;101656.59;;;1.93;100.00
30421;BME280;17218;54.070;10.012;2023-04-27T02:09:36;101664.16;;;1.90;100.00
30421;BME280;17218;54.070;10.012;2023-04-27T02:12:02;101665.88;;;1.91;100.00
30421;BME280;17218;54.070;10.012;2023-04-27T02:14:29;101662.59;;;1.94;100.00
30421;BME280;17218;54.070;10.012;2023-04-27T02:16:57;101674.09;;;1.84;100.00
30421;BME280;17218;54.070;10.012;2023-04-27T02:19:23;101676.47;;;1.79;100.00
30421;BME280;17218;54.070;10.012;2023-04-27T02:21:50;101668.09;;;1.83;100.00
30421;BME280;17218;54.070;10.012;2023-04-27T02:24:16;101674.22;;;1.87;100.00
30421;BME280;17218;54.070;10.012;2023-04-27T02:26:43;101673.38;;;1.86;100.00
30421;BME280;17218;54.070;10.012;2023-04-27T02:29:10;101681.09;;;1.88;100.00
30421;BME280;17218;54.070;10.012;2023-04-27T02:31:36;101679.31;;;1.87;100.00
30421;BME280;17218;54.070;10.012;2023-04-27T02:34:04;101687.16;;;1.90;100.00
30421;BME280;17218;54.070;10.012;2023-04-27T02:36:30;101685.38;;;1.89;100.00
30421;BME280;17218;54.070;10.012;2023-04-27T02:38:57;101677.31;;;1.79;100.00
30421;BME280;17218;54.070;10.012;2023-04-27T02:41:23;101691.91;;;1.82;100.00
30421;BME280;17218;54.070;10.012;2023-04-27T02:43:52;101686.34;;;1.91;100.00
30421;BME280;17218;54.070;10.012;2023-04-27T02:46:18;101697.03;;;2.02;100.00
30421;BME280;17218;54.070;10.012;2023-04-27T02:48:45;101683.75;;;2.11;100.00
30421;BME280;17218;54.070;10.012;2023-04-27T02:51:13;101692.66;;;2.19;100.00
30421;BME280;17218;54.070;10.012;2023-04-27T02:53:39;101686.59;;;2.17;100.00
30421;BME280;17218;54.070;10.012;2023-04-27T02:56:06;101692.13;;;2.07;100.00
30421;BME280;17218;54.070;10.012;2023-04-27T02:58:32;101692.38;;;2.13;100.00
30421;BME280;17218;54.070;10.012;2023-04-27T03:00:59;101696.16;;;2.21;100.00
30421;BME280;17218;54.070;10.012;2023-04-27T03:03:25;101682.53;;;2.22;100.00
30421;BME280;17218;54.070;10.012;2023-04-27T03:05:52;101680.47;;;2.13;100.00
30421;BME280;17218;54.070;10.012;2023-04-27T03:08:20;101683.69;;;2.09;100.00
30421;BME280;17218;54.070;10.012;2023-04-27T03:17:18;101682.22;;;1.95;100.00
30421;BME280;17218;54.070;10.012;2023-04-27T03:19:46;101683.78;;;1.91;100.00
30421;BME280;17218;54.070;10.012;2023-04-27T03:22:12;101680.22;;;1.87;100.00
30421;BME280;17218;54.070;10.012;2023-04-27T03:24:40;101688.00;;;1.90;100.00
30421;BME280;17218;54.070;10.012;2023-04-27T03:27:07;101690.44;;;1.87;100.00
30421;BME280;17218;54.070;10.012;2023-04-27T03:29:33;101698.38;;;1.94;100.00
30421;BME280;17218;54.070;10.012;2023-04-27T03:32:00;101700.78;;;1.90;100.00
30421;BME280;17218;54.070;10.012;2023-04-27T03:34:28;101700.66;;;1.87;100.00
30421;BME280;17218;54.070;10.012;2023-04-27T03:36:54;101712.53;;;1.87;100.00
30421;BME280;17218;54.070;10.012;2023-04-27T03:39:21;101703.22;;;1.87;100.00
30421;BME280;17218;54.070;10.012;2023-04-27T03:41:49;101694.78;;;1.70;100.00
30421;BME280;17218;54.070;10.012;2023-04-27T03:44:16;101703.34;;;1.71;100.00
30421;BME280;17218;54.070;10.012;2023-04-27T03:46:42;101710.47;;;1.78;100.00
30421;BME280;17218;54.070;10.012;2023-04-27T03:49:09;101697.69;;;1.78;100.00
30421;BME280;17218;54.070;10.012;2023-04-27T03:51:36;101700.53;;;1.84;100.00
30421;BME280;17218;54.070;10.012;2023-04-27T03:54:06;101707.13;;;1.79;100.00
30421;BME280;17218;54.070;10.012;2023-04-27T03:56:33;101702.06;;;1.81;100.00
30421;BME280;17218;54.070;10.012;2023-04-27T03:59:01;101701.19;;;1.80;100.00
30421;BME280;17218;54.070;10.012;2023-04-27T04:01:27;101710.41;;;1.76;100.00
30421;BME280;17218;54.070;10.012;2023-04-27T04:03:55;101701.00;;;1.75;100.00
30421;BME280;17218;54.070;10.012;2023-04-27T04:06:21;101697.16;;;1.65;100.00
30421;BME280;17218;54.070;10.012;2023-04-27T04:08:48;101708.97;;;1.63;100.00
30421;BME280;17218;54.070;10.012;2023-04-27T04:11:14;101703.94;;;1.65;100.00
30421;BME280;17218;54.070;10.012;2023-04-27T04:13:41;101710.03;;;1.69;100.00
30421;BME280;17218;54.070;10.012;2023-04-27T04:16:09;101697.16;;;1.65;100.00
30421;BME280;17218;54.070;10.012;2023-04-27T04:18:36;101710.03;;;1.69;100.00
30421;BME280;17218;54.070;10.012;2023-04-27T04:21:02;101712.47;;;1.65;100.00
30421;BME280;17218;54.070;10.012;2023-04-27T04:23:29;101712.41;;;1.64;100.00
30421;BME280;17218;54.070;10.012;2023-04-27T04:25:57;101719.06;;;1.60;100.00
30421;BME280;17218;54.070;10.012;2023-04-27T04:28:24;101723.88;;;1.54;100.00
30421;BME280;17218;54.070;10.012;2023-04-27T04:30:50;101718.69;;;1.52;100.00
30421;BME280;17218;54.070;10.012;2023-04-27T04:33:18;101725.47;;;1.52;100.00
30421;BME280;17218;54.070;10.012;2023-04-27T04:35:45;101723.81;;;1.52;100.00
30421;BME280;17218;54.070;10.012;2023-04-27T04:38:12;101729.28;;;1.60;100.00
30421;BME280;17218;54.070;10.012;2023-04-27T04:40:38;101735.66;;;1.70;100.00
30421;BME280;17218;54.070;10.012;2023-04-27T04:43:05;101736.78;;;1.75;100.00
30421;BME280;17218;54.070;10.012;2023-04-27T04:45:32;101731.06;;;1.81;100.00
30421;BME280;17218;54.070;10.012;2023-04-27T04:47:58;101747.13;;;1.98;100.00
30421;BME280;17218;54.070;10.012;2023-04-27T04:50:27;101745.66;;;2.03;100.00
30421;BME280;17218;54.070;10.012;2023-04-27T04:52:54;101741.09;;;2.16;100.00
30421;BME280;17218;54.070;10.012;2023-04-27T04:55:21;101747.47;;;2.26;100.00
30421;BME280;17218;54.070;10.012;2023-04-27T04:57:47;101751.31;;;2.36;100.00
30421;BME280;17218;54.070;10.012;2023-04-27T05:00:14;101745.09;;;2.50;100.00
30421;BME280;17218;54.070;10.012;2023-04-27T05:02:40;101744.81;;;2.64;100.00
30421;BME280;17218;54.070;10.012;2023-04-27T05:05:08;101759.72;;;2.74;100.00
30421;BME280;17218;54.070;10.012;2023-04-27T05:07:36;101753.88;;;2.77;100.00
30421;BME280;17218;54.070;10.012;2023-04-27T05:10:02;101759.28;;;2.85;100.00
30421;BME280;17218;54.070;10.012;2023-04-27T05:12:29;101754.94;;;2.82;100.00
30421;BME280;17218;54.070;10.012;2023-04-27T05:14:56;101745.06;;;2.70;100.00
30421;BME280;17218;54.070;10.012;2023-04-27T05:17:22;101750.38;;;2.75;100.00
30421;BME280;17218;54.070;10.012;2023-04-27T05:19:48;101756.44;;;2.77;100.00
30421;BME280;17218;54.070;10.012;2023-04-27T05:22:15;101737.69;;;2.78;100.00
30421;BME280;17218;54.070;10.012;2023-04-27T05:24:43;101741.13;;;2.79;100.00
30421;BME280;17218;54.070;10.012;2023-04-27T05:27:11;101743.69;;;2.79;100.00
30421;BME280;17218;54.070;10.012;2023-04-27T05:29:38;101743.03;;;2.83;100.00
30421;BME280;17218;54.070;10.012;2023-04-27T05:32:05;101741.63;;;2.70;100.00
30421;BME280;17218;54.070;10.012;2023-04-27T05:34:31;101745.66;;;2.65;100.00
30421;BME280;17218;54.070;10.012;2023-04-27T05:36:58;101755.50;;;2.55;100.00
30421;BME280;17218;54.070;10.012;2023-04-27T05:39:24;101750.56;;;2.80;100.00
30421;BME280;17218;54.070;10.012;2023-04-27T05:41:53;101761.66;;;3.02;100.00
30421;BME280;17218;54.070;10.012;2023-04-27T05:44:19;101762.25;;;3.16;100.00
30421;BME280;17218;54.070;10.012;2023-04-27T05:46:46;101765.94;;;3.45;100.00
30421;BME280;17218;54.070;10.012;2023-04-27T05:49:12;101768.50;;;3.91;100.00
30421;BME280;17218;54.070;10.012;2023-04-27T05:51:39;101774.09;;;4.28;100.00
30421;BME280;17218;54.070;10.012;2023-04-27T05:54:06;101752.75;;;4.29;100.00
30421;BME280;17218;54.070;10.012;2023-04-27T05:56:33;101741.53;;;4.27;100.00
30421;BME280;17218;54.070;10.012;2023-04-27T05:59:01;101747.34;;;3.97;100.00
30421;BME280;17218;54.070;10.012;2023-04-27T06:01:27;101749.31;;;4.04;100.00
30421;BME280;17218;54.070;10.012;2023-04-27T06:03:54;101748.19;;;3.98;100.00
30421;BME280;17218;54.070;10.012;2023-04-27T06:06:25;101748.63;;;4.09;100.00
30421;BME280;17218;54.070;10.012;2023-04-27T06:08:52;101754.19;;;4.21;100.00
30421;BME280;17218;54.070;10.012;2023-04-27T06:11:18;101767.28;;;4.29;100.00
30421;BME280;17218;54.070;10.012;2023-04-27T06:13:45;101763.31;;;4.39;100.00
30421;BME280;17218;54.070;10.012;2023-04-27T06:16:13;101754.78;;;4.14;100.00
30421;BME280;17218;54.070;10.012;2023-04-27T06:18:40;101759.13;;;4.16;100.00
30421;BME280;17218;54.070;10.012;2023-04-27T06:21:06;101763.00;;;4.29;100.00
30421;BME280;17218;54.070;10.012;2023-04-27T06:23:33;101751.66;;;4.47;100.00
30421;BME280;17218;54.070;10.012;2023-04-27T06:26:00;101753.91;;;4.38;100.00
30421;BME280;17218;54.070;10.012;2023-04-27T06:28:26;101756.38;;;4.61;100.00
30421;BME280;17218;54.070;10.012;2023-04-27T06:30:53;101750.47;;;4.63;100.00
30421;BME280;17218;54.070;10.012;2023-04-27T06:33:21;101756.06;;;4.77;100.00
30421;BME280;17218;54.070;10.012;2023-04-27T06:35:47;101749.25;;;4.78;100.00
30421;BME280;17218;54.070;10.012;2023-04-27T06:38:14;101752.88;;;4.85;100.00
30421;BME280;17218;54.070;10.012;2023-04-27T06:40:41;101765.22;;;4.95;100.00
30421;BME280;17218;54.070;10.012;2023-04-27T06:43:07;101757.88;;;5.08;100.00
30421;BME280;17218;54.070;10.012;2023-04-27T06:45:34;101766.94;;;5.24;100.00
30421;BME280;17218;54.070;10.012;2023-04-27T06:48:00;101773.09;;;5.29;100.00
30421;BME280;17218;54.070;10.012;2023-04-27T06:50:28;101769.84;;;5.35;100.00
30421;BME280;17218;54.070;10.012;2023-04-27T06:52:54;101770.00;;;5.40;100.00
30421;BME280;17218;54.070;10.012;2023-04-27T06:55:21;101769.47;;;5.50;100.00
30421;BME280;17218;54.070;10.012;2023-04-27T06:57:48;101758.41;;;5.53;100.00
30421;BME280;17218;54.070;10.012;2023-04-27T07:00:14;101766.25;;;5.57;100.00
30421;BME280;17218;54.070;10.012;2023-04-27T07:02:41;101765.63;;;5.66;100.00
30421;BME280;17218;54.070;10.012;2023-04-27T07:05:08;101766.28;;;5.59;100.00
30421;BME280;17218;54.070;10.012;2023-04-27T07:07:36;101764.00;;;5.68;100.00
30421;BME280;17218;54.070;10.012;2023-04-27T07:10:03;101766.88;;;5.79;100.00
30421;BME280;17218;54.070;10.012;2023-04-27T07:12:30;101762.31;;;6.00;100.00
30421;BME280;17218;54.070;10.012;2023-04-27T07:14:56;101761.78;;;6.10;100.00
30421;BME280;17218;54.070;10.012;2023-04-27T07:17:23;101762.09;;;6.21;100.00
30421;BME280;17218;54.070;10.012;2023-04-27T07:19:49;101770.41;;;6.44;100.00
30421;BME280;17218;54.070;10.012;2023-04-27T07:22:16;101769.91;;;6.58;100.00
30421;BME280;17218;54.070;10.012;2023-04-27T07:24:45;101770.34;;;6.77;100.00
30421;BME280;17218;54.070;10.012;2023-04-27T07:27:12;101768.25;;;6.96;100.00
30421;BME280;17218;54.070;10.012;2023-04-27T07:29:39;101769.59;;;7.16;100.00
30421;BME280;17218;54.070;10.012;2023-04-27T07:32:07;101762.44;;;7.04;100.00
30421;BME280;17218;54.070;10.012;2023-04-27T07:34:33;101765.06;;;7.06;100.00
30421;BME280;17218;54.070;10.012;2023-04-27T07:37:00;101758.97;;;7.39;100.00
30421;BME280;17218;54.070;10.012;2023-04-27T07:39:27;101765.03;;;7.83;100.00
30421;BME280;17218;54.070;10.012;2023-04-27T07:41:55;101771.81;;;8.23;100.00
30421;BME280;17218;54.070;10.012;2023-04-27T07:44:22;101772.28;;;8.48;100.00
30421;BME280;17218;54.070;10.012;2023-04-27T07:46:49;101766.53;;;8.62;100.00
30421;BME280;17218;54.070;10.012;2023-04-27T07:49:18;101775.75;;;8.49;100.00
30421;BME280;17218;54.070;10.012;2023-04-27T07:51:44;101787.69;;;7.97;100.00
30421;BME280;17218;54.070;10.012;2023-04-27T07:54:11;101785.69;;;7.85;100.00
30421;BME280;17218;54.070;10.012;2023-04-27T07:56:40;101792.69;;;7.49;100.00
30421;BME280;17218;54.070;10.012;2023-04-27T07:59:08;101792.63;;;7.47;100.00
30421;BME280;17218;54.070;10.012;2023-04-27T08:01:35;101789.25;;;7.50;100.00
30421;BME280;17218;54.070;10.012;2023-04-27T08:04:01;101789.34;;;7.55;100.00
30421;BME280;17218;54.070;10.012;2023-04-27T08:06:28;101782.44;;;7.52;100.00
30421;BME280;17218;54.070;10.012;2023-04-27T08:08:55;101786.41;;;7.37;100.00
30421;BME280;17218;54.070;10.012;2023-04-27T08:11:22;101782.50;;;7.55;100.00
30421;BME280;17218;54.070;10.012;2023-04-27T08:13:49;101775.31;;;7.80;100.00
30421;BME280;17218;54.070;10.012;2023-04-27T08:16:17;101781.25;;;7.78;100.00
30421;BME280;17218;54.070;10.012;2023-04-27T08:18:44;101775.47;;;7.90;100.00
30421;BME280;17218;54.070;10.012;2023-04-27T08:21:10;101784.41;;;8.06;100.00
30421;BME280;17218;54.070;10.012;2023-04-27T08:23:36;101776.22;;;8.29;100.00
30421;BME280;17218;54.070;10.012;2023-04-27T08:26:03;101768.81;;;8.46;100.00
30421;BME280;17218;54.070;10.012;2023-04-27T08:28:30;101773.72;;;8.78;100.00
30421;BME280;17218;54.070;10.012;2023-04-27T08:30:56;101770.47;;;8.93;100.00
30421;BME280;17218;54.070;10.012;2023-04-27T08:33:24;101772.88;;;9.37;100.00
30421;BME280;17218;54.070;10.012;2023-04-27T08:35:52;101767.44;;;9.82;100.00
30421;BME280;17218;54.070;10.012;2023-04-27T08:38:19;101758.06;;;9.93;100.00
30421;BME280;17218;54.070;10.012;2023-04-27T08:40:46;101765.13;;;10.08;100.00
30421;BME280;17218;54.070;10.012;2023-04-27T08:43:12;101758.91;;;9.89;100.00
30421;BME280;17218;54.070;10.012;2023-04-27T08:45:47;101754.53;;;9.85;100.00
30421;BME280;17218;54.070;10.012;2023-04-27T08:48:13;101773.69;;;10.02;100.00
30421;BME280;17218;54.070;10.012;2023-04-27T08:50:42;101764.56;;;10.34;100.00
30421;BME280;17218;54.070;10.012;2023-04-27T08:53:15;101765.66;;;10.57;100.00
30421;BME280;17218;54.070;10.012;2023-04-27T08:55:42;101753.69;;;10.70;100.00
30421;BME280;17218;54.070;10.012;2023-04-27T08:58:08;101762.28;;;10.67;100.00
30421;BME280;17218;54.070;10.012;2023-04-27T09:00:39;101755.31;;;10.58;100.00
30421;BME280;17218;54.070;10.012;2023-04-27T09:03:06;101748.34;;;10.54;97.76
30421;BME280;17218;54.070;10.012;2023-04-27T09:05:33;101739.72;;;10.54;96.48
30421;BME280;17218;54.070;10.012;2023-04-27T09:08:03;101738.06;;;10.62;100.00
30421;BME280;17218;54.070;10.012;2023-04-27T09:10:42;101740.75;;;10.73;100.00
30421;BME280;17218;54.070;10.012;2023-04-27T09:13:09;101746.91;;;10.88;100.00
30421;BME280;17218;54.070;10.012;2023-04-27T09:15:40;101736.78;;;11.22;100.00
30421;BME280;17218;54.070;10.012;2023-04-27T09:18:13;101747.22;;;11.33;98.28
30421;BME280;17218;54.070;10.012;2023-04-27T09:20:43;101739.50;;;11.49;94.26
30421;BME280;17218;54.070;10.012;2023-04-27T09:23:24;101733.25;;;11.15;96.89
30421;BME280;17218;54.070;10.012;2023-04-27T09:25:51;101744.28;;;10.80;97.18
30421;BME280;17218;54.070;10.012;2023-04-27T09:28:18;101750.34;;;10.85;100.00
30421;BME280;17218;54.070;10.012;2023-04-27T09:30:51;101736.34;;;10.64;100.00
30421;BME280;17218;54.070;10.012;2023-04-27T09:33:21;101734.00;;;10.91;100.00
30421;BME280;17218;54.070;10.012;2023-04-27T09:35:48;101753.03;;;10.94;100.00
30421;BME280;17218;54.070;10.012;2023-04-27T09:38:17;101740.38;;;11.48;100.00
30421;BME280;17218;54.070;10.012;2023-04-27T09:40:44;101731.03;;;11.95;90.20
30421;BME280;17218;54.070;10.012;2023-04-27T09:43:11;101742.25;;;11.81;83.65
30421;BME280;17218;54.070;10.012;2023-04-27T09:45:37;101741.25;;;11.51;83.09
30421;BME280;17218;54.070;10.012;2023-04-27T09:48:05;101741.97;;;11.28;89.11
30421;BME280;17218;54.070;10.012;2023-04-27T09:50:33;101755.38;;;10.65;100.00
30421;BME280;17218;54.070;10.012;2023-04-27T09:53:00;101753.69;;;10.73;100.00
30421;BME280;17218;54.070;10.012;2023-04-27T09:55:34;101755.63;;;10.99;100.00
30421;BME280;17218;54.070;10.012;2023-04-27T09:58:11;101754.00;;;11.15;97.53
30421;BME280;17218;54.070;10.012;2023-04-27T10:00:51;101747.16;;;11.24;96.31
30421;BME280;17218;54.070;10.012;2023-04-27T10:03:26;101748.16;;;11.51;90.98
30421;BME280;17218;54.070;10.012;2023-04-27T10:09:19;101749.16;;;11.83;90.51
30421;BME280;17218;54.070;10.012;2023-04-27T10:11:49;101746.69;;;12.17;95.74
30421;BME280;17218;54.070;10.012;2023-04-27T10:14:17;101742.41;;;12.50;81.73
30421;BME280;17218;54.070;10.012;2023-04-27T10:16:45;101737.22;;;12.75;78.54
30421;BME280;17218;54.070;10.012;2023-04-27T10:19:13;101739.81;;;12.79;71.91
30421;BME280;17218;54.070;10.012;2023-04-27T10:21:54;101747.63;;;12.61;75.58
30421;BME280;17218;54.070;10.012;2023-04-27T10:24:33;101749.34;;;12.42;80.46
30421;BME280;17218;54.070;10.012;2023-04-27T10:27:04;101741.56;;;12.73;80.27
30421;BME280;17218;54.070;10.012;2023-04-27T10:29:35;101745.88;;;13.09;80.01
30421;BME280;17218;54.070;10.012;2023-04-27T10:32:05;101740.69;;;13.01;85.87
30421;BME280;17218;54.070;10.012;2023-04-27T10:34:33;101749.34;;;13.03;83.67
30421;BME280;17218;54.070;10.012;2023-04-27T10:37:04;101755.38;;;13.29;72.58
30421;BME280;17218;54.070;10.012;2023-04-27T10:39:34;101757.16;;;12.69;69.77
30421;BME280;17218;54.070;10.012;2023-04-27T10:42:03;101755.41;;;12.82;71.88
30421;BME280;17218;54.070;10.012;2023-04-27T10:44:32;101758.03;;;12.66;75.91
30421;BME280;17218;54.070;10.012;2023-04-27T10:47:00;101759.75;;;12.56;78.60
30421;BME280;17218;54.070;10.012;2023-04-27T10:49:27;101765.75;;;12.19;79.73
30421;BME280;17218;54.070;10.012;2023-04-27T10:51:56;101777.78;;;11.97;82.50
30421;BME280;17218;54.070;10.012;2023-04-27T10:54:26;101783.88;;;12.05;83.21
30421;BME280;17218;54.070;10.012;2023-04-27T10:56:53;101784.63;;;11.77;84.12
30421;BME280;17218;54.070;10.012;2023-04-27T10:59:21;101790.63;;;11.62;88.24
30421;BME280;17218;54.070;10.012;2023-04-27T11:01:48;101796.59;;;11.50;96.24
30421;BME280;17218;54.070;10.012;2023-04-27T11:04:15;101791.38;;;11.41;100.00
30421;BME280;17218;54.070;10.012;2023-04-27T11:06:44;101798.28;;;11.40;100.00
30421;BME280;17218;54.070;10.012;2023-04-27T11:09:11;101798.44;;;11.70;100.00
30421;BME280;17218;54.070;10.012;2023-04-27T11:11:42;101800.41;;;12.18;100.00
30421;BME280;17218;54.070;10.012;2023-04-27T11:14:09;101802.19;;;12.44;100.00
30421;BME280;17218;54.070;10.012;2023-04-27T11:16:46;101799.63;;;12.90;100.00
30421;BME280;17218;54.070;10.012;2023-04-27T11:19:13;101795.28;;;12.70;94.82
30421;BME280;17218;54.070;10.012;2023-04-27T11:21:39;101790.91;;;13.30;93.58
30421;BME280;17218;54.070;10.012;2023-04-27T11:24:07;101781.94;;;14.15;85.54
30421;BME280;17218;54.070;10.012;2023-04-27T11:26:34;101785.94;;;14.66;80.49
30421;BME280;17218;54.070;10.012;2023-04-27T11:29:02;101791.44;;;14.30;75.21
30421;BME280;17218;54.070;10.012;2023-04-27T11:31:38;101797.69;;;13.89;78.99
30421;BME280;17218;54.070;10.012;2023-04-27T11:34:07;101784.28;;;14.58;81.28
30421;BME280;17218;54.070;10.012;2023-04-27T11:36:34;101779.66;;;14.94;75.90
30421;BME280;17218;54.070;10.012;2023-04-27T11:39:02;101793.28;;;15.29;69.98
30421;BME280;17218;54.070;10.012;2023-04-27T11:41:33;101792.66;;;15.84;70.62
30421;BME280;17218;54.070;10.012;2023-04-27T11:44:06;101795.81;;;15.35;63.77
30421;BME280;17218;54.070;10.012;2023-04-27T11:46:34;101784.41;;;15.43;63.95
30421;BME280;17218;54.070;10.012;2023-04-27T11:49:02;101797.25;;;15.63;62.72
30421;BME280;17218;54.070;10.012;2023-04-27T11:51:31;101794.41;;;15.82;60.05
30421;BME280;17218;54.070;10.012;2023-04-27T11:54:02;101783.94;;;15.86;62.80
30421;BME280;17218;54.070;10.012;2023-04-27T11:56:37;101790.25;;;15.67;62.29
30421;BME280;17218;54.070;10.012;2023-04-27T11:59:05;101789.50;;;15.55;61.11
30421;BME280;17218;54.070;10.012;2023-04-27T12:01:32;101795.88;;;15.27;63.16
30421;BME280;17218;54.070;10.012;2023-04-27T12:03:59;101803.16;;;14.94;61.19
30421;BME280;17218;54.070;10.012;2023-04-27T12:06:26;101800.91;;;14.46;61.12
30421;BME280;17218;54.070;10.012;2023-04-27T12:08:55;101793.97;;;14.41;65.24
30421;BME280;17218;54.070;10.012;2023-04-27T12:11:23;101797.56;;;15.33;63.15
30421;BME280;17218;54.070;10.012;2023-04-27T12:13:49;101808.84;;;15.40;61.87
30421;BME280;17218;54.070;10.012;2023-04-27T12:16:16;101809.66;;;15.45;62.62
30421;BME280;17218;54.070;10.012;2023-04-27T12:18:43;101799.00;;;15.61;62.78
30421;BME280;17218;54.070;10.012;2023-04-27T12:21:09;101806.75;;;15.69;61.65
30421;BME280;17218;54.070;10.012;2023-04-27T12:23:36;101804.06;;;15.77;63.40
30421;BME280;17218;54.070;10.012;2023-04-27T12:26:04;101809.53;;;15.56;60.60
30421;BME280;17218;54.070;10.012;2023-04-27T12:28:30;101815.47;;;14.73;63.30
30421;BME280;17218;54.070;10.012;2023-04-27T12:30:57;101828.19;;;13.54;67.53
30421;BME280;17218;54.070;10.012;2023-04-27T12:33:23;101829.97;;;13.25;72.60
30421;BME280;17218;54.070;10.012;2023-04-27T12:35:50;101827.34;;;12.62;83.05
30421;BME280;17218;54.070;10.012;2023-04-27T12:38:17;101817.78;;;12.61;85.87
30421;BME280;17218;54.070;10.012;2023-04-27T12:40:43;101831.59;;;12.35;89.34
30421;BME280;17218;54.070;10.012;2023-04-27T12:43:11;101820.25;;;12.10;88.67
30421;BME280;17218;54.070;10.012;2023-04-27T12:45:38;101818.59;;;12.31;92.52
30421;BME280;17218;54.070;10.012;2023-04-27T12:48:05;101822.09;;;12.36;93.31
30421;BME280;17218;54.070;10.012;2023-04-27T12:50:32;101810.81;;;12.31;94.04